sensor_id;sensor_type;location;lat;lon;timestamp;temperature;humidity
45383;DHT22;42455;51.660;5.824;2023-04-03T00:01:26;4.5;86.5
45383;DHT22;42455;51.660;5.824;2023-04-03T00:06:32;4.5;86.5
45383;DHT22;42455;51.660;5.824;2023-04-03T00:11:38;4.4;87.0
45383;DHT22;42455;51.660;5.824;2023-04-03T00:16:44;4.4;87.0
45383;DHT22;42455;51.660;5.824;2023-04-03T00:21:50;4.4;87.0
45383;DHT22;42455;51.660;5.824;2023-04-03T00:26:57;4.4;87.0
45383;DHT22;42455;51.660;5.824;2023-04-03T00:32:02;4.3;87.0
45383;DHT22;42455;51.660;5.824;2023-04-03T00:37:08;4.2;87.0
45383;DHT22;42455;51.660;5.824;2023-04-03T00:42:14;4.2;87.5
45383;DHT22;42455;51.660;5.824;2023-04-03T00:47:20;4.2;87.5
45383;DHT22;42455;51.660;5.824;2023-04-03T00:52:28;4.1;87.5
45383;DHT22;42455;51.660;5.824;2023-04-03T00:57:33;4.1;88.0
45383;DHT22;42455;51.660;5.824;2023-04-03T01:02:38;4.1;88.0
45383;DHT22;42455;51.660;5.824;2023-04-03T01:07:45;4.1;88.5
45383;DHT22;42455;51.660;5.824;2023-04-03T01:12:51;4.2;89.0
45383;DHT22;42455;51.660;5.824;2023-04-03T01:17:57;4.2;89.5
45383;DHT22;42455;51.660;5.824;2023-04-03T01:23:48;4.3;89.5
45383;DHT22;42455;51.660;5.824;2023-04-03T01:28:13;4.4;89.5
45383;DHT22;42455;51.660;5.824;2023-04-03T01:33:15;4.5;89.5
45383;DHT22;42455;51.660;5.824;2023-04-03T01:38:22;4.6;89.0
45383;DHT22;42455;51.660;5.824;2023-04-03T01:43:28;4.6;89.0
45383;DHT22;42455;51.660;5.824;2023-04-03T01:48:34;4.6;89.0
45383;DHT22;42455;51.660;5.824;2023-04-03T01:53:40;4.6;89.0
45383;DHT22;42455;51.660;5.824;2023-04-03T01:58:47;4.6;88.5
45383;DHT22;42455;51.660;5.824;2023-04-03T02:03:53;4.6;88.5
45383;DHT22;42455;51.660;5.824;2023-04-03T02:08:59;4.6;88.5
45383;DHT22;42455;51.660;5.824;2023-04-03T02:14:06;4.6;88.5
45383;DHT22;42455;51.660;5.824;2023-04-03T02:19:11;4.5;88.5
45383;DHT22;42455;51.660;5.824;2023-04-03T02:24:18;4.5;88.5
45383;DHT22;42455;51.660;5.824;2023-04-03T02:29:24;4.5;88.5
45383;DHT22;42455;51.660;5.824;2023-04-03T02:34:29;4.4;88.5
45383;DHT22;42455;51.660;5.824;2023-04-03T02:39:35;4.3;88.5
45383;DHT22;42455;51.660;5.824;2023-04-03T02:44:40;4.3;89.0
45383;DHT22;42455;51.660;5.824;2023-04-03T02:49:47;4.3;89.0
45383;DHT22;42455;51.660;5.824;2023-04-03T02:54:53;4.3;89.0
45383;DHT22;42455;51.660;5.824;2023-04-03T02:59:59;4.3;89.0
45383;DHT22;42455;51.660;5.824;2023-04-03T03:05:05;4.2;89.0
45383;DHT22;42455;51.660;5.824;2023-04-03T03:10:12;4.2;89.0
45383;DHT22;42455;51.660;5.824;2023-04-03T03:15:18;4.2;89.0
45383;DHT22;42455;51.660;5.824;2023-04-03T03:20:24;4.1;89.0
45383;DHT22;42455;51.660;5.824;2023-04-03T03:25:30;4.1;89.0
45383;DHT22;42455;51.660;5.824;2023-04-03T03:30:37;4.1;89.5
45383;DHT22;42455;51.660;5.824;2023-04-03T03:35:43;4.1;89.5
45383;DHT22;42455;51.660;5.824;2023-04-03T03:40:50;4.1;89.5
45383;DHT22;42455;51.660;5.824;2023-04-03T03:45:55;4.1;89.5
45383;DHT22;42455;51.660;5.824;2023-04-03T03:51:01;4.1;89.5
45383;DHT22;42455;51.660;5.824;2023-04-03T03:56:07;4.1;89.5
45383;DHT22;42455;51.660;5.824;2023-04-03T04:01:13;4.1;89.5
45383;DHT22;42455;51.660;5.824;2023-04-03T04:06:20;4.1;89.5
45383;DHT22;42455;51.660;5.824;2023-04-03T04:11:26;4.0;89.0
45383;DHT22;42455;51.660;5.824;2023-04-03T04:16:32;3.9;89.0
45383;DHT22;42455;51.660;5.824;2023-04-03T04:21:38;3.9;89.0
45383;DHT22;42455;51.660;5.824;2023-04-03T04:26:45;3.9;89.5
45383;DHT22;42455;51.660;5.824;2023-04-03T04:31:50;3.8;89.5
45383;DHT22;42455;51.660;5.824;2023-04-03T04:36:56;3.8;89.5
45383;DHT22;42455;51.660;5.824;2023-04-03T04:42:01;3.8;89.5
45383;DHT22;42455;51.660;5.824;2023-04-03T04:47:08;3.8;89.5
45383;DHT22;42455;51.660;5.824;2023-04-03T04:52:14;3.8;89.5
45383;DHT22;42455;51.660;5.824;2023-04-03T04:57:20;3.7;89.5
45383;DHT22;42455;51.660;5.824;2023-04-03T05:02:26;3.7;90.0
45383;DHT22;42455;51.660;5.824;2023-04-03T05:07:32;3.7;89.5
45383;DHT22;42455;51.660;5.824;2023-04-03T05:12:38;3.7;89.5
45383;DHT22;42455;51.660;5.824;2023-04-03T05:17:45;3.7;89.5
45383;DHT22;42455;51.660;5.824;2023-04-03T05:22:51;3.7;89.5
45383;DHT22;42455;51.660;5.824;2023-04-03T05:27:58;3.7;90.0
45383;DHT22;42455;51.660;5.824;2023-04-03T05:33:03;3.7;90.0
45383;DHT22;42455;51.660;5.824;2023-04-03T05:38:10;3.7;89.5
45383;DHT22;42455;51.660;5.824;2023-04-03T05:43:16;3.6;89.5
45383;DHT22;42455;51.660;5.824;2023-04-03T05:48:22;3.6;89.5
45383;DHT22;42455;51.660;5.824;2023-04-03T05:53:35;3.6;90.0
45383;DHT22;42455;51.660;5.824;2023-04-03T05:58:34;3.6;90.0
45383;DHT22;42455;51.660;5.824;2023-04-03T06:03:41;3.6;90.0
45383;DHT22;42455;51.660;5.824;2023-04-03T06:08:47;3.6;90.0
45383;DHT22;42455;51.660;5.824;2023-04-03T06:13:53;3.7;90.0
45383;DHT22;42455;51.660;5.824;2023-04-03T06:18:59;3.7;90.5
45383;DHT22;42455;51.660;5.824;2023-04-03T06:24:06;3.8;90.5
45383;DHT22;42455;51.660;5.824;2023-04-03T06:29:11;3.9;90.5
45383;DHT22;42455;51.660;5.824;2023-04-03T06:34:17;4.1;90.5
45383;DHT22;42455;51.660;5.824;2023-04-03T06:39:22;4.2;90.5
45383;DHT22;42455;51.660;5.824;2023-04-03T06:44:28;4.4;90.5
45383;DHT22;42455;51.660;5.824;2023-04-03T06:49:35;4.6;90.5
45383;DHT22;42455;51.660;5.824;2023-04-03T06:54:41;4.8;90.5
45383;DHT22;42455;51.660;5.824;2023-04-03T06:59:47;5.0;90.5
45383;DHT22;42455;51.660;5.824;2023-04-03T07:04:53;5.2;90.5
45383;DHT22;42455;51.660;5.824;2023-04-03T07:09:59;5.4;90.0
45383;DHT22;42455;51.660;5.824;2023-04-03T07:15:06;5.6;90.0
45383;DHT22;42455;51.660;5.824;2023-04-03T07:20:12;5.7;89.5
45383;DHT22;42455;51.660;5.824;2023-04-03T07:25:18;6.0;89.5
45383;DHT22;42455;51.660;5.824;2023-04-03T07:30:24;6.2;89.5
45383;DHT22;42455;51.660;5.824;2023-04-03T07:35:31;6.4;88.5
45383;DHT22;42455;51.660;5.824;2023-04-03T07:40:37;6.5;88.5
45383;DHT22;42455;51.660;5.824;2023-04-03T07:45:43;6.7;88.0
45383;DHT22;42455;51.660;5.824;2023-04-03T07:50:49;6.9;87.5
45383;DHT22;42455;51.660;5.824;2023-04-03T07:55:56;7.0;87.0
45383;DHT22;42455;51.660;5.824;2023-04-03T08:01:02;7.2;87.0
45383;DHT22;42455;51.660;5.824;2023-04-03T08:06:08;7.3;86.5
45383;DHT22;42455;51.660;5.824;2023-04-03T08:11:14;7.5;86.0
45383;DHT22;42455;51.660;5.824;2023-04-03T08:16:22;7.6;84.5
45383;DHT22;42455;51.660;5.824;2023-04-03T08:21:26;7.7;84.0
45383;DHT22;42455;51.660;5.824;2023-04-03T08:26:32;7.8;84.0
45383;DHT22;42455;51.660;5.824;2023-04-03T08:31:38;7.9;83.5
45383;DHT22;42455;51.660;5.824;2023-04-03T08:36:45;8.0;83.0
45383;DHT22;42455;51.660;5.824;2023-04-03T08:41:49;8.1;82.5
45383;DHT22;42455;51.660;5.824;2023-04-03T08:47:04;8.2;82.0
45383;DHT22;42455;51.660;5.824;2023-04-03T08:52:04;8.4;81.5
45383;DHT22;42455;51.660;5.824;2023-04-03T08:57:10;8.5;81.0
45383;DHT22;42455;51.660;5.824;2023-04-03T09:02:28;8.6;79.5
45383;DHT22;42455;51.660;5.824;2023-04-03T09:07:37;8.8;78.5
45383;DHT22;42455;51.660;5.824;2023-04-03T09:12:32;8.9;76.5
45383;DHT22;42455;51.660;5.824;2023-04-03T09:18:02;9.0;75.5
45383;DHT22;42455;51.660;5.824;2023-04-03T09:22:43;9.1;76.0
45383;DHT22;42455;51.660;5.824;2023-04-03T09:27:45;9.3;76.0
45383;DHT22;42455;51.660;5.824;2023-04-03T09:32:54;9.5;73.5
45383;DHT22;42455;51.660;5.824;2023-04-03T09:37:59;9.6;72.5
45383;DHT22;42455;51.660;5.824;2023-04-03T09:43:22;9.7;70.5
45383;DHT22;42455;51.660;5.824;2023-04-03T09:48:22;9.8;70.5
45383;DHT22;42455;51.660;5.824;2023-04-03T09:53:27;9.9;70.5
45383;DHT22;42455;51.660;5.824;2023-04-03T09:58:40;10.1;69.0
45383;DHT22;42455;51.660;5.824;2023-04-03T10:03:31;10.1;67.5
45383;DHT22;42455;51.660;5.824;2023-04-03T10:08:35;10.2;68.0
45383;DHT22;42455;51.660;5.824;2023-04-03T10:13:58;10.3;63.0
45383;DHT22;42455;51.660;5.824;2023-04-03T10:18:49;10.3;62.5
45383;DHT22;42455;51.660;5.824;2023-04-03T10:24:01;10.3;63.5
45383;DHT22;42455;51.660;5.824;2023-04-03T10:29:05;10.3;63.5
45383;DHT22;42455;51.660;5.824;2023-04-03T10:34:20;10.4;63.5
45383;DHT22;42455;51.660;5.824;2023-04-03T10:39:30;10.5;61.5
45383;DHT22;42455;51.660;5.824;2023-04-03T10:44:38;10.5;60.0
45383;DHT22;42455;51.660;5.824;2023-04-03T10:49:50;10.6;62.0
45383;DHT22;42455;51.660;5.824;2023-04-03T10:54:45;10.7;62.0
45383;DHT22;42455;51.660;5.824;2023-04-03T10:59:38;10.8;62.0
45383;DHT22;42455;51.660;5.824;2023-04-03T11:04:42;10.9;61.5
45383;DHT22;42455;51.660;5.824;2023-04-03T11:09:50;10.9;59.5
45383;DHT22;42455;51.660;5.824;2023-04-03T11:14:55;11.0;59.5
45383;DHT22;42455;51.660;5.824;2023-04-03T11:20:10;11.0;59.5
45383;DHT22;42455;51.660;5.824;2023-04-03T11:25:15;11.1;59.0
45383;DHT22;42455;51.660;5.824;2023-04-03T11:30:15;11.1;59.0
45383;DHT22;42455;51.660;5.824;2023-04-03T11:35:19;11.2;59.0
45383;DHT22;42455;51.660;5.824;2023-04-03T11:40:26;11.3;59.5
45383;DHT22;42455;51.660;5.824;2023-04-03T11:45:56;11.4;59.5
45383;DHT22;42455;51.660;5.824;2023-04-03T11:50:41;11.5;60.0
45383;DHT22;42455;51.660;5.824;2023-04-03T11:56:01;11.6;60.0
45383;DHT22;42455;51.660;5.824;2023-04-03T12:01:10;11.7;59.5
45383;DHT22;42455;51.660;5.824;2023-04-03T12:05:58;11.8;59.5
45383;DHT22;42455;51.660;5.824;2023-04-03T12:11:31;11.9;58.5
45383;DHT22;42455;51.660;5.824;2023-04-03T12:16:19;11.9;58.5
45383;DHT22;42455;51.660;5.824;2023-04-03T12:21:14;11.9;59.0
45383;DHT22;42455;51.660;5.824;2023-04-03T12:26:26;12.0;58.5
45383;DHT22;42455;51.660;5.824;2023-04-03T12:31:32;12.0;59.0
45383;DHT22;42455;51.660;5.824;2023-04-03T12:36:39;12.1;58.5
45383;DHT22;42455;51.660;5.824;2023-04-03T12:42:15;12.1;58.5
45383;DHT22;42455;51.660;5.824;2023-04-03T12:46:48;12.2;58.5
45383;DHT22;42455;51.660;5.824;2023-04-03T12:51:48;12.2;58.5
45383;DHT22;42455;51.660;5.824;2023-04-03T12:57:10;12.3;58.5
45383;DHT22;42455;51.660;5.824;2023-04-03T13:02:01;12.4;56.5
45383;DHT22;42455;51.660;5.824;2023-04-03T13:07:18;12.3;57.0
45383;DHT22;42455;51.660;5.824;2023-04-03T13:12:16;12.3;57.0
45383;DHT22;42455;51.660;5.824;2023-04-03T13:17:19;12.4;58.5
45383;DHT22;42455;51.660;5.824;2023-04-03T13:22:35;12.5;59.0
45383;DHT22;42455;51.660;5.824;2023-04-03T13:27:31;12.7;58.5
45383;DHT22;42455;51.660;5.824;2023-04-03T13:32:37;12.7;59.0
45383;DHT22;42455;51.660;5.824;2023-04-03T13:37:53;12.9;59.0
45383;DHT22;42455;51.660;5.824;2023-04-03T13:43:02;12.9;58.5
45383;DHT22;42455;51.660;5.824;2023-04-03T13:48:09;12.9;56.5
45383;DHT22;42455;51.660;5.824;2023-04-03T13:53:08;12.8;56.0
45383;DHT22;42455;51.660;5.824;2023-04-03T13:58:22;12.8;56.0
45383;DHT22;42455;51.660;5.824;2023-04-03T14:03:28;12.8;56.0
45383;DHT22;42455;51.660;5.824;2023-04-03T14:08:21;12.9;57.0
45383;DHT22;42455;51.660;5.824;2023-04-03T14:13:30;12.9;57.5
45383;DHT22;42455;51.660;5.824;2023-04-03T14:18:33;13.0;56.5
45383;DHT22;42455;51.660;5.824;2023-04-03T14:23:39;13.0;58.0
45383;DHT22;42455;51.660;5.824;2023-04-03T14:28:45;13.2;57.5
45383;DHT22;42455;51.660;5.824;2023-04-03T14:33:51;13.2;57.5
45383;DHT22;42455;51.660;5.824;2023-04-03T14:38:57;13.2;57.0
45383;DHT22;42455;51.660;5.824;2023-04-03T14:44:03;13.2;57.5
45383;DHT22;42455;51.660;5.824;2023-04-03T14:49:15;13.2;57.0
45383;DHT22;42455;51.660;5.824;2023-04-03T14:54:17;13.3;57.0
45383;DHT22;42455;51.660;5.824;2023-04-03T14:59:21;13.3;57.5
45383;DHT22;42455;51.660;5.824;2023-04-03T15:04:27;13.4;57.5
45383;DHT22;42455;51.660;5.824;2023-04-03T15:09:35;13.4;57.5
45383;DHT22;42455;51.660;5.824;2023-04-03T15:14:39;13.4;56.5
45383;DHT22;42455;51.660;5.824;2023-04-03T15:19:46;13.3;56.5
45383;DHT22;42455;51.660;5.824;2023-04-03T15:24:52;13.3;57.5
45383;DHT22;42455;51.660;5.824;2023-04-03T15:29:58;13.4;57.0
45383;DHT22;42455;51.660;5.824;2023-04-03T15:35:05;13.4;57.0
45383;DHT22;42455;51.660;5.824;2023-04-03T15:40:11;13.3;57.0
45383;DHT22;42455;51.660;5.824;2023-04-03T15:45:17;13.3;57.0
45383;DHT22;42455;51.660;5.824;2023-04-03T15:50:23;13.4;57.5
45383;DHT22;42455;51.660;5.824;2023-04-03T15:55:31;13.4;57.5
45383;DHT22;42455;51.660;5.824;2023-04-03T16:00:36;13.4;57.0
45383;DHT22;42455;51.660;5.824;2023-04-03T16:05:42;13.3;57.0
45383;DHT22;42455;51.660;5.824;2023-04-03T16:10:48;13.3;57.0
45383;DHT22;42455;51.660;5.824;2023-04-03T16:15:54;13.2;56.5
45383;DHT22;42455;51.660;5.824;2023-04-03T16:21:00;13.2;56.0
45383;DHT22;42455;51.660;5.824;2023-04-03T16:26:05;13.0;56.0
45383;DHT22;42455;51.660;5.824;2023-04-03T16:31:12;12.9;56.5
45383;DHT22;42455;51.660;5.824;2023-04-03T16:36:18;12.8;57.0
45383;DHT22;42455;51.660;5.824;2023-04-03T16:41:24;12.8;57.0
45383;DHT22;42455;51.660;5.824;2023-04-03T16:46:30;12.7;57.0
45383;DHT22;42455;51.660;5.824;2023-04-03T16:51:36;12.6;57.0
45383;DHT22;42455;51.660;5.824;2023-04-03T16:56:43;12.5;57.5
45383;DHT22;42455;51.660;5.824;2023-04-03T17:01:49;12.4;57.5
45383;DHT22;42455;51.660;5.824;2023-04-03T17:06:55;12.3;57.5
45383;DHT22;42455;51.660;5.824;2023-04-03T17:12:01;12.1;57.0
45383;DHT22;42455;51.660;5.824;2023-04-03T17:17:08;11.9;57.5
45383;DHT22;42455;51.660;5.824;2023-04-03T17:22:14;11.7;57.0
45383;DHT22;42455;51.660;5.824;2023-04-03T17:27:20;11.5;57.5
45383;DHT22;42455;51.660;5.824;2023-04-03T17:32:26;11.3;57.5
45383;DHT22;42455;51.660;5.824;2023-04-03T17:37:32;11.1;58.0
45383;DHT22;42455;51.660;5.824;2023-04-03T17:42:39;11.0;58.5
45383;DHT22;42455;51.660;5.824;2023-04-03T17:47:45;10.8;58.5
45383;DHT22;42455;51.660;5.824;2023-04-03T17:52:51;10.7;59.0
45383;DHT22;42455;51.660;5.824;2023-04-03T17:57:57;10.5;59.0
45383;DHT22;42455;51.660;5.824;2023-04-03T18:03:04;10.3;59.5
45383;DHT22;42455;51.660;5.824;2023-04-03T18:08:10;10.2;60.0
45383;DHT22;42455;51.660;5.824;2023-04-03T18:13:15;10.0;60.5
45383;DHT22;42455;51.660;5.824;2023-04-03T18:18:21;9.8;60.5
45383;DHT22;42455;51.660;5.824;2023-04-03T18:23:30;9.6;61.0
45383;DHT22;42455;51.660;5.824;2023-04-03T18:28:32;9.4;61.5
45383;DHT22;42455;51.660;5.824;2023-04-03T18:33:39;9.2;62.0
45383;DHT22;42455;51.660;5.824;2023-04-03T18:38:45;9.1;62.5
45383;DHT22;42455;51.660;5.824;2023-04-03T18:43:51;8.9;62.5
45383;DHT22;42455;51.660;5.824;2023-04-03T18:48:58;8.7;63.0
45383;DHT22;42455;51.660;5.824;2023-04-03T18:54:04;8.6;63.5
45383;DHT22;42455;51.660;5.824;2023-04-03T18:59:10;8.4;63.5
45383;DHT22;42455;51.660;5.824;2023-04-03T19:04:16;8.3;64.0
45383;DHT22;42455;51.660;5.824;2023-04-03T19:09:23;8.1;64.0
45383;DHT22;42455;51.660;5.824;2023-04-03T19:14:28;8.0;64.5
45383;DHT22;42455;51.660;5.824;2023-04-03T19:19:34;7.9;65.0
45383;DHT22;42455;51.660;5.824;2023-04-03T19:24:41;7.8;65.0
45383;DHT22;42455;51.660;5.824;2023-04-03T19:29:47;7.7;65.5
45383;DHT22;42455;51.660;5.824;2023-04-03T19:34:55;7.6;66.0
45383;DHT22;42455;51.660;5.824;2023-04-03T19:39:59;7.5;66.0
45383;DHT22;42455;51.660;5.824;2023-04-03T19:45:06;7.5;66.0
45383;DHT22;42455;51.660;5.824;2023-04-03T19:50:12;7.4;66.0
45383;DHT22;42455;51.660;5.824;2023-04-03T19:55:18;7.3;66.5
45383;DHT22;42455;51.660;5.824;2023-04-03T20:00:24;7.3;66.5
45383;DHT22;42455;51.660;5.824;2023-04-03T20:05:31;7.2;66.5
45383;DHT22;42455;51.660;5.824;2023-04-03T20:10:35;7.2;67.0
45383;DHT22;42455;51.660;5.824;2023-04-03T20:15:43;7.1;67.0
45383;DHT22;42455;51.660;5.824;2023-04-03T20:20:53;7.1;67.0
45383;DHT22;42455;51.660;5.824;2023-04-03T20:25:55;7.0;67.0
45383;DHT22;42455;51.660;5.824;2023-04-03T20:30:59;7.0;67.5
45383;DHT22;42455;51.660;5.824;2023-04-03T20:36:05;6.9;67.5
45383;DHT22;42455;51.660;5.824;2023-04-03T20:41:11;6.9;67.5
45383;DHT22;42455;51.660;5.824;2023-04-03T20:46:17;6.8;67.5
45383;DHT22;42455;51.660;5.824;2023-04-03T20:51:24;6.7;67.5
45383;DHT22;42455;51.660;5.824;2023-04-03T20:56:30;6.7;68.0
45383;DHT22;42455;51.660;5.824;2023-04-03T21:01:36;6.6;68.0
45383;DHT22;42455;51.660;5.824;2023-04-03T21:22:01;6.2;69.0
45383;DHT22;42455;51.660;5.824;2023-04-03T21:27:07;6.2;69.0
45383;DHT22;42455;51.660;5.824;2023-04-03T21:32:13;6.2;69.0
45383;DHT22;42455;51.660;5.824;2023-04-03T21:37:19;6.1;69.5
45383;DHT22;42455;51.660;5.824;2023-04-03T21:42:25;6.0;69.5
45383;DHT22;42455;51.660;5.824;2023-04-03T21:47:32;5.9;70.0
45383;DHT22;42455;51.660;5.824;2023-04-03T21:52:38;5.9;70.0
45383;DHT22;42455;51.660;5.824;2023-04-03T21:57:48;5.8;70.0
45383;DHT22;42455;51.660;5.824;2023-04-03T22:02:50;5.8;70.0
45383;DHT22;42455;51.660;5.824;2023-04-03T22:07:57;5.7;70.5
45383;DHT22;42455;51.660;5.824;2023-04-03T22:13:03;5.7;70.5
45383;DHT22;42455;51.660;5.824;2023-04-03T22:18:08;5.7;70.5
45383;DHT22;42455;51.660;5.824;2023-04-03T22:23:14;5.6;70.5
45383;DHT22;42455;51.660;5.824;2023-04-03T22:28:19;5.6;70.5
45383;DHT22;42455;51.660;5.824;2023-04-03T22:33:25;5.5;71.0
45383;DHT22;42455;51.660;5.824;2023-04-03T22:38:32;5.5;71.0
45383;DHT22;42455;51.660;5.824;2023-04-03T22:43:38;5.4;71.0
45383;DHT22;42455;51.660;5.824;2023-04-03T22:48:44;5.3;71.5
45383;DHT22;42455;51.660;5.824;2023-04-03T22:53:50;5.3;71.5
45383;DHT22;42455;51.660;5.824;2023-04-03T22:58:57;5.3;71.5
45383;DHT22;42455;51.660;5.824;2023-04-03T23:04:03;5.2;71.5
45383;DHT22;42455;51.660;5.824;2023-04-03T23:09:09;5.1;72.0
45383;DHT22;42455;51.660;5.824;2023-04-03T23:14:15;5.1;72.0
45383;DHT22;42455;51.660;5.824;2023-04-03T23:19:21;5.0;72.0
45383;DHT22;42455;51.660;5.824;2023-04-03T23:24:27;5.0;72.0
45383;DHT22;42455;51.660;5.824;2023-04-03T23:29:34;4.9;72.0
45383;DHT22;42455;51.660;5.824;2023-04-03T23:34:40;4.9;72.0
45383;DHT22;42455;51.660;5.824;2023-04-03T23:39:46;4.8;72.5
45383;DHT22;42455;51.660;5.824;2023-04-03T23:44:52;4.7;72.5
45383;DHT22;42455;51.660;5.824;2023-04-03T23:49:59;4.6;72.5
45383;DHT22;42455;51.660;5.824;2023-04-03T23:55:05;4.5;72.5
